Time;durP1;ratioP1;P1;durP2;ratioP2;P2;SDS_P1;SDS_P2;PMS_P1;PMS_P2;Temp;Humidity;BMP_temperature;BMP_pressure;BME280_temperature;BME280_humidity;BME280_pressure;Samples;Min_cycle;Max_cycle;Signal;HPM_P1;HPM_P2
2023/07/02 00:00:51;;;;;;;5.57;3.40;;;;;;;26.10;57.24;95938.03;5036121;28;20029;-27
2023/07/02 00:03:21;;;;;;;7.57;3.65;;;;;;;25.97;57.37;95929.75;5049293;28;20025;-27
2023/07/02 00:05:49;;;;;;;7.75;3.40;;;;;;;26.09;56.92;95931.00;5036702;28;20029;-27
2023/07/02 00:08:15;;;;;;;6.25;4.40;;;;;;;26.01;57.14;95930.94;5035349;28;20017;-27
2023/07/02 00:10:41;;;;;;;6.45;3.60;;;;;;;25.84;57.69;95927.78;5036086;28;20104;-27
2023/07/02 00:13:07;;;;;;;8.60;3.85;;;;;;;25.94;57.24;95936.44;5036195;28;20041;-27
2023/07/02 00:15:32;;;;;;;8.25;3.92;;;;;;;25.97;56.85;95933.28;5035875;28;20033;-28
2023/07/02 00:17:58;;;;;;;6.00;3.60;;;;;;;25.98;56.95;95942.38;5036233;28;20482;-28
2023/07/02 00:20:24;;;;;;;6.40;3.70;;;;;;;25.99;56.47;95941.84;5047963;28;20033;-27
2023/07/02 00:22:50;;;;;;;8.18;3.97;;;;;;;25.80;57.31;95944.06;5035820;28;20030;-28
2023/07/02 00:25:15;;;;;;;9.05;4.03;;;;;;;25.70;57.49;95943.03;5035837;28;20032;-27
2023/07/02 00:27:41;;;;;;;12.75;3.88;;;;;;;25.65;57.86;95944.63;5035665;28;20026;-27
2023/07/02 00:30:07;;;;;;;9.57;5.18;;;;;;;25.84;57.33;95952.06;5035672;28;20031;-27
2023/07/02 00:32:33;;;;;;;10.13;4.05;;;;;;;25.81;57.41;95951.13;5035323;28;20467;-27
2023/07/02 00:34:58;;;;;;;7.30;3.58;;;;;;;25.74;57.76;95948.97;5035703;28;20055;-28
2023/07/02 00:37:24;;;;;;;7.18;4.00;;;;;;;25.66;58.03;95953.72;5042665;28;20052;-27
2023/07/02 00:39:50;;;;;;;9.00;4.10;;;;;;;25.82;57.54;95952.59;5035561;28;20037;-27
2023/07/02 00:42:16;;;;;;;5.32;3.42;;;;;;;25.82;57.67;95949.81;5035114;28;20041;-28
2023/07/02 00:44:42;;;;;;;6.75;3.50;;;;;;;25.75;57.67;95942.16;5035747;28;20021;-27
2023/07/02 00:47:11;;;;;;;8.45;4.28;;;;;;;25.92;57.17;95944.56;5044548;28;20022;-27
2023/07/02 00:49:37;;;;;;;5.85;3.50;;;;;;;25.76;57.51;95944.38;5042840;28;20021;-27
2023/07/02 00:52:02;;;;;;;7.30;3.95;;;;;;;25.76;57.15;95949.94;5035316;28;20463;-27
2023/07/02 00:54:28;;;;;;;6.57;3.97;;;;;;;25.86;56.64;95946.69;5035259;28;20108;-27
2023/07/02 00:56:54;;;;;;;7.50;4.05;;;;;;;25.76;57.25;95947.16;5035115;28;20096;-27
2023/07/02 00:59:20;;;;;;;5.80;4.32;;;;;;;25.84;56.82;95943.75;5034968;28;20026;-27
2023/07/02 01:01:49;;;;;;;6.78;3.92;;;;;;;25.77;56.94;95945.13;5035408;28;20027;-27
2023/07/02 01:04:17;;;;;;;6.97;4.18;;;;;;;25.90;56.67;95942.31;5034962;28;20486;-27
2023/07/02 01:06:43;;;;;;;6.72;4.03;;;;;;;25.89;56.45;95938.03;5035776;28;20021;-27
2023/07/02 01:09:10;;;;;;;6.80;4.57;;;;;;;25.73;56.69;95936.38;5034718;28;20413;-27
2023/07/02 01:12:05;;;;;;;6.03;4.20;;;;;;;25.87;56.10;95932.28;5035201;28;20029;-27
2023/07/02 01:14:38;;;;;;;6.57;4.25;;;;;;;25.76;56.40;95933.28;5040308;28;20038;-27
2023/07/02 01:17:06;;;;;;;7.80;3.90;;;;;;;25.80;56.79;95935.72;5042385;28;20112;-26
2023/07/02 01:19:58;;;;;;;7.95;3.78;;;;;;;25.92;56.15;95934.19;5034793;28;20029;-27
2023/07/02 01:22:26;;;;;;;7.55;4.50;;;;;;;25.85;56.37;95934.84;5034557;28;20025;-28
2023/07/02 01:24:53;;;;;;;8.07;4.10;;;;;;;25.91;56.23;95943.81;5035258;28;20481;-27
2023/07/02 01:27:20;;;;;;;10.35;4.43;;;;;;;25.71;57.23;95941.75;5041540;28;20040;-27
2023/07/02 01:29:46;;;;;;;10.10;4.63;;;;;;;25.75;57.36;95942.16;5047939;28;20072;-27
2023/07/02 01:32:15;;;;;;;12.48;5.15;;;;;;;25.79;57.03;95934.22;5034379;28;20052;-29
2023/07/02 01:34:40;;;;;;;13.10;4.60;;;;;;;25.75;57.20;95939.38;5034733;28;20029;-27
2023/07/02 01:37:07;;;;;;;10.88;4.53;;;;;;;25.86;56.72;95928.00;5034694;28;20013;-27
2023/07/02 01:39:33;;;;;;;12.05;4.60;;;;;;;25.73;57.10;95933.59;5038066;28;20107;-27
2023/07/02 01:42:18;;;;;;;8.63;4.60;;;;;;;25.59;57.17;95930.09;5037987;28;20384;-27
2023/07/02 01:44:45;;;;;;;9.85;4.57;;;;;;;25.71;57.03;95931.38;5034278;28;20024;-27
2023/07/02 01:47:10;;;;;;;6.93;4.22;;;;;;;25.68;56.60;95932.47;5034007;28;20467;-26
2023/07/02 01:49:37;;;;;;;10.63;4.25;;;;;;;25.75;56.35;95931.03;5034865;28;20025;-27
2023/07/02 01:52:04;;;;;;;7.65;4.13;;;;;;;25.67;56.96;95933.75;5034426;28;20111;-28
2023/07/02 01:54:31;;;;;;;9.80;3.85;;;;;;;25.71;56.57;95941.75;5041355;28;20474;-27
2023/07/02 01:56:57;;;;;;;12.13;4.85;;;;;;;25.58;57.36;95933.44;5033885;28;20021;-27
2023/07/02 01:59:23;;;;;;;8.32;4.10;;;;;;;25.61;56.89;95937.91;5034065;28;20163;-27
2023/07/02 02:01:49;;;;;;;7.30;4.10;;;;;;;25.63;56.76;95935.34;5041112;28;20407;-27
2023/07/02 02:04:15;;;;;;;6.90;4.10;;;;;;;25.69;56.83;95933.22;5040730;28;20079;-26
2023/07/02 02:06:41;;;;;;;7.80;4.60;;;;;;;25.63;56.91;95935.34;5040758;28;20025;-27
2023/07/02 02:09:07;;;;;;;7.53;4.15;;;;;;;25.45;57.24;95941.78;5033661;28;20386;-28
2023/07/02 02:11:34;;;;;;;7.38;4.18;;;;;;;25.51;56.73;95934.06;5034011;28;20025;-27
2023/07/02 02:14:01;;;;;;;8.05;4.30;;;;;;;25.60;56.58;95936.38;5034261;28;20029;-27
2023/07/02 02:16:27;;;;;;;10.25;4.57;;;;;;;25.57;56.74;95931.94;5039680;28;20369;-27
2023/07/02 02:18:53;;;;;;;7.15;4.22;;;;;;;25.66;56.66;95926.69;5035273;28;20100;-27
2023/07/02 02:21:19;;;;;;;7.28;3.90;;;;;;;25.71;56.76;95927.88;5033784;28;20017;-26
2023/07/02 02:23:44;;;;;;;6.80;4.43;;;;;;;25.61;56.81;95926.81;5033838;28;20364;-28
2023/07/02 02:26:10;;;;;;;6.70;4.10;;;;;;;25.81;56.34;95920.56;5033653;28;20053;-27
2023/07/02 02:28:36;;;;;;;8.02;4.57;;;;;;;25.67;56.64;95921.88;5033558;28;20034;-27
2023/07/02 02:31:02;;;;;;;8.60;4.00;;;;;;;25.67;56.50;95924.66;5032889;28;20051;-27
2023/07/02 02:33:27;;;;;;;7.00;4.25;;;;;;;25.64;56.50;95929.25;5033555;28;20026;-27
2023/07/02 02:35:53;;;;;;;7.65;4.30;;;;;;;25.52;56.89;95924.47;5033537;28;20447;-27
2023/07/02 02:38:18;;;;;;;7.55;4.03;;;;;;;25.57;56.64;95920.81;5046548;28;20025;-27
2023/07/02 02:40:44;;;;;;;13.32;4.40;;;;;;;25.68;56.79;95921.34;5047043;28;20025;-27
2023/07/02 02:43:09;;;;;;;7.38;4.55;;;;;;;25.56;56.63;95925.63;5033426;28;20502;-28
2023/07/02 02:45:35;;;;;;;9.57;4.45;;;;;;;25.54;57.05;95919.88;5033525;28;20029;-28
2023/07/02 02:48:00;;;;;;;11.98;4.63;;;;;;;25.62;56.58;95917.19;5033823;28;20517;-28
2023/07/02 02:50:26;;;;;;;9.23;4.47;;;;;;;25.64;56.60;95920.19;5033671;28;20032;-27
2023/07/02 02:52:51;;;;;;;8.40;4.47;;;;;;;25.60;56.39;95922.50;5033173;28;20104;-29
2023/07/02 02:55:17;;;;;;;7.75;4.30;;;;;;;25.68;55.92;95943.56;5033452;28;20047;-27
2023/07/02 02:57:42;;;;;;;6.57;3.83;;;;;;;25.50;56.62;95938.88;5033143;28;20076;-27
2023/07/02 03:00:09;;;;;;;8.88;4.57;;;;;;;25.71;56.02;95930.63;5033554;28;20028;-26
2023/07/02 03:02:35;;;;;;;8.25;4.05;;;;;;;25.61;56.03;95930.34;5033549;28;20371;-27
2023/07/02 03:05:02;;;;;;;7.40;4.47;;;;;;;25.45;56.61;95931.44;5032148;28;20024;-27
2023/07/02 03:07:28;;;;;;;7.47;4.43;;;;;;;25.45;56.83;95937.00;5033079;28;20490;-27
2023/07/02 03:09:53;;;;;;;8.18;4.38;;;;;;;25.48;56.26;95929.59;5033322;28;20051;-27
2023/07/02 03:12:18;;;;;;;11.50;4.80;;;;;;;25.49;56.18;95931.09;5033571;28;20029;-26
2023/07/02 03:14:44;;;;;;;6.80;4.47;;;;;;;25.41;56.38;95936.56;5033200;28;20037;-27
2023/07/02 03:17:10;;;;;;;7.10;4.43;;;;;;;25.57;56.30;95934.72;5033171;28;20045;-27
2023/07/02 03:19:35;;;;;;;6.47;4.53;;;;;;;25.39;56.25;95928.75;5032890;28;20022;-27
2023/07/02 03:22:01;;;;;;;8.35;4.22;;;;;;;25.53;56.17;95937.81;5032902;28;20430;-27
2023/07/02 03:24:26;;;;;;;6.22;4.65;;;;;;;25.55;55.95;95940.06;5033075;28;20064;-27
2023/07/02 03:26:52;;;;;;;9.43;4.47;;;;;;;25.34;56.72;95937.22;5033296;28;20471;-27
2023/07/02 03:29:19;;;;;;;10.30;4.90;;;;;;;25.46;55.92;95932.19;5033022;28;20028;-27
2023/07/02 03:31:45;;;;;;;9.13;4.50;;;;;;;25.36;56.01;95938.16;5032937;28;20471;-27
2023/07/02 03:34:10;;;;;;;7.95;4.57;;;;;;;25.14;57.17;95941.41;5033187;28;20052;-27
2023/07/02 03:36:37;;;;;;;7.50;3.78;;;;;;;25.40;56.28;95943.38;5033060;28;20032;-27
2023/07/02 03:39:03;;;;;;;6.82;4.10;;;;;;;25.39;55.88;95948.19;5033437;28;20030;-27
2023/07/02 03:41:29;;;;;;;14.25;4.82;;;;;;;25.37;55.99;95947.22;5040402;28;20119;-28
2023/07/02 03:43:54;;;;;;;9.18;4.40;;;;;;;25.42;56.24;95951.94;5034024;28;20475;-27
2023/07/02 03:46:20;;;;;;;8.18;3.95;;;;;;;25.40;56.05;95962.81;5036532;28;20028;-27
2023/07/02 03:48:46;;;;;;;8.30;4.50;;;;;;;25.36;56.40;95963.13;5036925;28;20018;-27
2023/07/02 03:51:14;;;;;;;8.05;4.22;;;;;;;25.29;56.30;95963.81;5036234;28;20028;-27
2023/07/02 03:53:40;;;;;;;9.38;4.43;;;;;;;25.45;56.08;95975.09;5036978;28;20018;-28
2023/07/02 03:56:06;;;;;;;6.95;4.03;;;;;;;25.47;55.80;95969.75;5036277;28;20018;-27
2023/07/02 03:58:31;;;;;;;9.50;4.57;;;;;;;25.40;55.83;95983.00;5036527;28;20183;-27
2023/07/02 04:00:57;;;;;;;8.10;4.38;;;;;;;25.38;56.21;95982.78;5035991;28;20017;-27
2023/07/02 04:03:22;;;;;;;10.07;4.60;;;;;;;25.33;56.16;95969.78;5049160;28;20025;-27
2023/07/02 04:05:48;;;;;;;11.40;5.45;;;;;;;25.43;55.88;95975.63;5036072;28;20058;-28
2023/07/02 04:08:14;;;;;;;7.45;4.55;;;;;;;25.45;56.08;95978.63;5041135;28;20024;-27
2023/07/02 04:10:40;;;;;;;7.70;4.40;;;;;;;25.41;55.94;95970.63;5037972;28;20019;-29
2023/07/02 04:13:05;;;;;;;6.38;3.83;;;;;;;25.34;56.10;95974.06;5036005;28;20462;-27
2023/07/02 04:15:31;;;;;;;6.82;3.63;;;;;;;25.39;55.88;95969.66;5035922;28;20024;-26
2023/07/02 04:17:57;;;;;;;6.78;4.50;;;;;;;25.30;56.26;95976.41;5035968;28;20032;-26
2023/07/02 04:20:23;;;;;;;7.82;4.22;;;;;;;25.36;56.23;95979.78;5035818;28;20017;-27
2023/07/02 04:22:48;;;;;;;9.65;4.72;;;;;;;25.34;55.88;95987.19;5043041;28;20481;-28
2023/07/02 04:25:17;;;;;;;7.05;4.10;;;;;;;25.37;55.50;95992.41;5035845;28;20018;-27
2023/07/02 04:27:44;;;;;;;8.43;4.00;;;;;;;25.41;55.77;95992.81;5035885;28;20029;-27
2023/07/02 04:30:14;;;;;;;9.02;4.72;;;;;;;25.44;55.58;95991.00;5036015;28;20025;-27
2023/07/02 04:32:39;;;;;;;5.93;3.75;;;;;;;25.48;55.45;95990.66;5035614;28;20494;-27
2023/07/02 04:35:06;;;;;;;6.35;4.13;;;;;;;25.38;55.75;95996.66;5035916;28;20029;-27
2023/07/02 04:37:31;;;;;;;11.57;5.63;;;;;;;25.35;56.01;95997.72;5035749;28;20137;-27
2023/07/02 04:39:57;;;;;;;7.32;4.75;;;;;;;25.39;56.29;95995.38;5035212;28;20487;-28
2023/07/02 04:42:27;;;;;;;6.82;4.45;;;;;;;25.38;56.06;95999.44;5035298;28;20418;-27
2023/07/02 04:44:54;;;;;;;7.50;4.35;;;;;;;25.36;56.26;95998.47;5035326;28;20021;-27
2023/07/02 04:47:19;;;;;;;8.25;4.57;;;;;;;25.44;56.17;95990.25;5036045;28;20026;-27
2023/07/02 04:49:45;;;;;;;7.15;4.10;;;;;;;25.37;56.11;95995.16;5041859;28;20026;-28
2023/07/02 04:52:11;;;;;;;8.07;4.30;;;;;;;25.44;56.42;95995.81;5035486;28;20071;-27
2023/07/02 04:54:36;;;;;;;9.30;4.43;;;;;;;25.44;56.34;96002.13;5034954;28;20463;-27
2023/07/02 04:57:02;;;;;;;8.30;4.35;;;;;;;25.31;56.83;96002.13;5035153;28;20019;-27
2023/07/02 04:59:27;;;;;;;5.68;4.13;;;;;;;25.34;56.64;95996.25;5035231;28;20036;-27
2023/07/02 05:01:53;;;;;;;7.93;4.53;;;;;;;25.44;56.34;95999.34;5035498;28;20026;-27
2023/07/02 05:04:18;;;;;;;10.55;4.70;;;;;;;25.48;56.17;95996.22;5035508;28;20021;-27
2023/07/02 05:06:44;;;;;;;9.68;4.43;;;;;;;25.40;56.26;95994.09;5035122;28;20025;-27
2023/07/02 05:09:09;;;;;;;6.45;4.90;;;;;;;25.33;56.10;95996.78;5035171;28;20025;-27
2023/07/02 05:11:34;;;;;;;11.05;4.80;;;;;;;25.39;56.19;95992.59;5035211;28;20117;-27
2023/07/02 05:14:00;;;;;;;7.15;4.35;;;;;;;25.35;56.55;95997.72;5041904;28;20055;-26
2023/07/02 05:16:25;;;;;;;5.90;4.15;;;;;;;25.51;56.07;95995.16;5035186;28;20022;-27
2023/07/02 05:18:51;;;;;;;6.82;4.25;;;;;;;25.46;56.29;96004.34;5035179;28;20356;-27
2023/07/02 05:21:20;;;;;;;8.05;4.13;;;;;;;25.58;56.21;95991.75;5034736;28;20459;-27
2023/07/02 05:23:48;;;;;;;6.43;4.00;;;;;;;25.50;56.32;95999.22;5034787;28;20018;-27
2023/07/02 05:26:13;;;;;;;7.35;4.10;;;;;;;25.46;56.60;95993.25;5034213;28;20032;-26
2023/07/02 05:28:38;;;;;;;6.22;3.80;;;;;;;25.54;56.42;96000.38;5034523;28;20025;-27
2023/07/02 05:31:04;;;;;;;9.57;4.38;;;;;;;25.60;56.30;96001.00;5034915;28;20025;-27
2023/07/02 05:33:32;;;;;;;7.00;4.93;;;;;;;25.57;56.07;96004.88;5034645;28;20029;-27
2023/07/02 05:35:57;;;;;;;8.50;4.07;;;;;;;25.55;56.20;96001.88;5034293;28;20053;-27
2023/07/02 05:38:24;;;;;;;7.47;4.72;;;;;;;25.53;56.64;96009.25;5034458;28;20095;-28
2023/07/02 05:40:49;;;;;;;8.02;4.20;;;;;;;25.57;56.43;96004.13;5033871;28;20562;-27
2023/07/02 05:43:15;;;;;;;7.63;4.70;;;;;;;25.59;55.94;96007.84;5047959;28;20112;-27
2023/07/02 05:45:40;;;;;;;7.00;4.22;;;;;;;25.60;56.01;96009.34;5034415;28;20044;-27
2023/07/02 05:48:05;;;;;;;9.18;5.10;;;;;;;25.46;56.74;96007.13;5034825;28;20029;-27
2023/07/02 05:50:31;;;;;;;7.43;3.95;;;;;;;25.39;57.15;96014.81;5034183;28;20465;-28
2023/07/02 05:52:57;;;;;;;8.00;4.15;;;;;;;25.21;57.30;96001.81;5034174;28;20378;-27
2023/07/02 05:55:23;;;;;;;6.25;3.65;;;;;;;25.47;56.37;96008.63;5033768;28;20423;-27
2023/07/02 05:57:48;;;;;;;8.27;4.20;;;;;;;25.43;56.69;96011.72;5034487;28;20028;-28
2023/07/02 06:00:14;;;;;;;7.63;4.38;;;;;;;25.58;56.22;96017.47;5034340;28;20101;-27
2023/07/02 06:02:40;;;;;;;6.78;4.20;;;;;;;25.51;56.42;96009.03;5034096;28;20041;-27
2023/07/02 06:05:06;;;;;;;6.82;4.15;;;;;;;25.48;56.75;96015.66;5033884;28;20025;-26
2023/07/02 06:07:31;;;;;;;9.30;4.25;;;;;;;25.51;56.81;96022.91;5033048;28;20391;-27
2023/07/02 06:09:56;;;;;;;7.93;4.35;;;;;;;25.45;56.54;96030.63;5041340;28;20021;-27
2023/07/02 06:12:22;;;;;;;8.60;4.28;;;;;;;25.60;56.48;96028.03;5033470;28;20021;-27
2023/07/02 06:14:48;;;;;;;7.70;4.70;;;;;;;25.59;56.63;96035.59;5041022;28;20383;-27
2023/07/02 06:17:15;;;;;;;7.80;4.70;;;;;;;25.60;56.54;96028.03;5033434;28;20418;-27
2023/07/02 06:19:40;;;;;;;7.50;4.60;;;;;;;25.55;56.19;96034.47;5033508;28;20033;-29
2023/07/02 06:22:07;;;;;;;8.20;4.55;;;;;;;25.64;55.97;96028.47;5033655;28;20017;-28
2023/07/02 06:24:33;;;;;;;7.38;4.05;;;;;;;25.66;55.96;96031.47;5033837;28;20447;-27
2023/07/02 06:26:58;;;;;;;9.50;5.47;;;;;;;25.69;55.88;96039.50;5040696;28;20039;-28
2023/07/02 06:29:24;;;;;;;8.85;5.00;;;;;;;25.60;56.32;96036.34;5032368;28;20021;-27
2023/07/02 06:31:50;;;;;;;7.25;4.45;;;;;;;25.75;55.88;96036.56;5033441;28;20079;-27
2023/07/02 06:34:16;;;;;;;7.90;4.10;;;;;;;25.60;56.08;96041.91;5033660;28;20017;-27
2023/07/02 06:36:42;;;;;;;7.97;4.80;;;;;;;25.55;56.77;96037.22;5033705;28;20119;-27
2023/07/02 06:39:09;;;;;;;10.90;4.88;;;;;;;25.53;56.31;96045.34;5033883;28;20487;-27
2023/07/02 06:41:35;;;;;;;7.97;4.35;;;;;;;25.57;55.81;96043.00;5033141;28;20045;-27
2023/07/02 06:44:00;;;;;;;7.97;4.70;;;;;;;25.51;56.20;96047.91;5033420;28;20052;-27
2023/07/02 06:46:26;;;;;;;7.72;4.47;;;;;;;25.70;55.49;96051.34;5033229;28;20432;-27
2023/07/02 06:48:51;;;;;;;6.05;3.90;;;;;;;25.57;55.71;96054.09;5033755;28;20021;-27
2023/07/02 06:51:18;;;;;;;8.35;3.90;;;;;;;25.45;55.99;96052.84;5033506;28;20013;-28
2023/07/02 06:53:44;;;;;;;7.53;4.07;;;;;;;25.70;55.20;96051.34;5047094;28;20025;-27
2023/07/02 06:56:10;;;;;;;6.53;3.47;;;;;;;25.66;55.52;96054.44;5033331;28;20060;-29
2023/07/02 06:58:36;;;;;;;7.22;4.07;;;;;;;25.68;55.57;96048.34;5033472;28;20022;-27
2023/07/02 07:01:01;;;;;;;6.25;4.18;;;;;;;25.66;55.61;96056.47;5046476;28;20056;-28
2023/07/02 07:03:27;;;;;;;6.30;4.53;;;;;;;25.58;56.02;96056.34;5040469;28;20017;-27
2023/07/02 07:05:53;;;;;;;8.00;4.05;;;;;;;25.58;56.51;96047.28;5043067;28;20071;-27
2023/07/02 07:08:18;;;;;;;7.47;3.92;;;;;;;25.58;56.35;96050.06;5037718;28;20021;-29
2023/07/02 07:10:45;;;;;;;8.23;4.43;;;;;;;25.79;55.46;96059.22;5032900;28;20367;-26
2023/07/02 07:13:11;;;;;;;7.30;4.43;;;;;;;25.50;56.36;96051.97;5033038;28;20079;-27
2023/07/02 07:15:36;;;;;;;8.10;4.18;;;;;;;25.58;56.18;96047.28;5032877;28;20057;-27
2023/07/02 07:18:02;;;;;;;6.88;4.15;;;;;;;25.73;55.95;96056.56;5042164;28;20425;-27
2023/07/02 07:20:28;;;;;;;8.98;4.22;;;;;;;25.68;55.39;96056.69;5037354;28;20091;-27
2023/07/02 07:22:54;;;;;;;5.72;3.90;;;;;;;25.71;55.59;96056.38;5037060;28;20025;-27
2023/07/02 07:25:19;;;;;;;5.53;3.88;;;;;;;25.65;55.72;96066.09;5036859;28;20033;-27
2023/07/02 07:27:45;;;;;;;5.97;4.43;;;;;;;25.75;55.14;96058.81;5036880;28;20022;-28
2023/07/02 07:30:11;;;;;;;6.63;4.00;;;;;;;25.70;55.75;96062.47;5043905;28;20029;-27
2023/07/02 07:32:36;;;;;;;8.40;3.95;;;;;;;25.76;55.25;96063.81;5037225;28;20022;-27
2023/07/02 07:35:02;;;;;;;6.85;4.13;;;;;;;25.61;54.91;96065.66;5036606;28;20470;-27
2023/07/02 07:37:28;;;;;;;6.47;3.50;;;;;;;25.58;55.60;96069.50;5036747;28;20028;-27
2023/07/02 07:39:53;;;;;;;5.82;3.97;;;;;;;25.84;54.36;96063.19;5036804;28;20090;-27
2023/07/02 07:42:19;;;;;;;6.93;3.40;;;;;;;25.71;54.23;96063.94;5036563;28;20057;-27
2023/07/02 07:44:46;;;;;;;6.15;3.55;;;;;;;25.65;54.11;96066.84;5036511;28;20014;-27
2023/07/02 07:47:11;;;;;;;5.75;3.50;;;;;;;25.74;54.67;96065.63;5036515;28;20032;-27
2023/07/02 07:49:37;;;;;;;6.63;4.18;;;;;;;25.90;53.88;96064.56;5036414;28;20467;-28
2023/07/02 07:52:03;;;;;;;6.38;4.07;;;;;;;25.86;54.23;96066.91;5036297;28;20500;-27
2023/07/02 07:54:29;;;;;;;6.00;3.70;;;;;;;25.81;53.89;96065.00;5036495;28;20048;-26
2023/07/02 07:56:54;;;;;;;7.20;4.00;;;;;;;26.07;53.08;96075.31;5036692;28;20017;-28
2023/07/02 07:59:20;;;;;;;5.00;3.67;;;;;;;25.96;53.07;96067.97;5036379;28;20022;-26
2023/07/02 08:01:46;;;;;;;4.97;3.53;;;;;;;25.97;53.10;96063.88;5036022;28;20452;-27
2023/07/02 08:04:12;;;;;;;5.00;3.67;;;;;;;26.11;52.74;96062.56;5036221;28;20022;-26
2023/07/02 08:06:38;;;;;;;5.78;3.60;;;;;;;26.10;53.26;96061.06;5036525;28;20037;-27
2023/07/02 08:09:03;;;;;;;6.85;4.20;;;;;;;25.97;52.56;96071.47;5036019;28;20100;-28
2023/07/02 08:11:29;;;;;;;4.85;3.28;;;;;;;26.04;53.05;96066.00;5035997;28;20402;-27
2023/07/02 08:13:54;;;;;;;4.60;3.60;;;;;;;26.03;53.44;96067.31;5036235;28;20086;-27
2023/07/02 08:16:20;;;;;;;6.25;3.75;;;;;;;26.27;52.98;96071.06;5035975;28;20389;-27
2023/07/02 08:18:45;;;;;;;5.88;3.65;;;;;;;26.13;53.15;96057.22;5035966;28;20034;-27
2023/07/02 08:21:11;;;;;;;7.03;3.53;;;;;;;26.25;53.32;96065.31;5035972;28;20017;-26
2023/07/02 08:23:37;;;;;;;7.13;3.90;;;;;;;26.27;53.93;96068.28;5035651;28;20041;-27
2023/07/02 08:26:03;;;;;;;5.35;3.53;;;;;;;26.24;53.51;96067.34;5036073;28;20463;-27
2023/07/02 08:28:28;;;;;;;5.10;3.33;;;;;;;26.21;53.13;96067.69;5035917;28;20070;-27
2023/07/02 08:30:54;;;;;;;5.47;3.33;;;;;;;26.17;53.61;96067.25;5035500;28;20029;-27
2023/07/02 08:33:20;;;;;;;4.68;3.25;;;;;;;26.29;53.28;96065.75;5043040;28;20108;-27
2023/07/02 08:35:46;;;;;;;5.38;3.42;;;;;;;26.31;53.84;96071.53;5035783;28;20340;-27
2023/07/02 08:38:11;;;;;;;6.82;3.60;;;;;;;26.32;53.45;96070.25;5036155;28;20017;-27
2023/07/02 08:40:37;;;;;;;6.22;3.80;;;;;;;26.27;53.51;96071.81;5035467;28;20459;-27
2023/07/02 08:43:02;;;;;;;4.28;3.45;;;;;;;26.16;53.57;96071.31;5035705;28;20041;-27
2023/07/02 08:45:28;;;;;;;4.78;3.20;;;;;;;26.46;52.44;96069.63;5035633;28;20095;-27
2023/07/02 08:47:56;;;;;;;5.15;3.13;;;;;;;26.28;53.83;96080.94;5035022;28;20371;-27
2023/07/02 08:50:22;;;;;;;4.90;3.50;;;;;;;26.25;53.84;96073.63;5035135;28;20528;-28
2023/07/02 08:52:48;;;;;;;7.22;3.58;;;;;;;26.36;53.13;96076.19;5034499;28;20397;-27
2023/07/02 08:55:13;;;;;;;5.75;3.20;;;;;;;26.28;53.73;96075.38;5035609;28;20034;-27
2023/07/02 08:57:42;;;;;;;5.85;4.20;;;;;;;26.35;54.18;96081.00;5048148;28;20024;-27
2023/07/02 09:00:11;;;;;;;8.13;3.85;;;;;;;26.23;53.09;96084.53;5035383;28;20382;-27
2023/07/02 09:02:36;;;;;;;7.75;3.80;;;;;;;26.20;53.51;96089.19;5035179;28;20025;-27
2023/07/02 09:05:03;;;;;;;6.38;4.35;;;;;;;26.28;53.76;96075.38;5034973;28;20523;-27
2023/07/02 09:07:30;;;;;;;7.25;3.42;;;;;;;26.27;53.17;96085.72;5034797;28;20103;-27
2023/07/02 09:09:55;;;;;;;4.90;3.90;;;;;;;26.29;53.00;96080.41;5035349;28;20048;-27
2023/07/02 09:12:29;;;;;;;5.18;3.60;;;;;;;26.33;53.03;96082.84;5035052;28;20053;-27
2023/07/02 09:15:03;;;;;;;5.00;3.60;;;;;;;26.30;52.37;96083.94;5035082;28;20026;-27
2023/07/02 09:17:32;;;;;;;7.70;3.65;;;;;;;26.54;52.40;96080.84;5034761;28;20029;-28
2023/07/02 09:20:01;;;;;;;6.03;3.78;;;;;;;26.28;52.27;96092.06;5035159;28;20076;-28
2023/07/02 09:22:27;;;;;;;5.93;3.67;;;;;;;26.27;52.54;96087.75;5042015;28;20021;-27
2023/07/02 09:25:00;;;;;;;8.32;3.60;;;;;;;26.42;52.04;96090.72;5042438;28;20029;-27
2023/07/02 09:27:42;;;;;;;4.95;3.45;;;;;;;26.56;51.75;96092.19;5034547;28;20029;-27
2023/07/02 09:30:08;;;;;;;4.33;3.03;;;;;;;26.41;52.59;96089.97;5035512;28;20028;-28
2023/07/02 09:32:34;;;;;;;5.60;3.63;;;;;;;26.55;52.27;96106.63;5034381;28;20029;-28
2023/07/02 09:35:00;;;;;;;6.88;3.50;;;;;;;26.46;52.22;96097.44;5041962;28;20028;-27
2023/07/02 09:37:26;;;;;;;5.30;3.10;;;;;;;26.37;52.77;96097.16;5034594;28;20014;-27
2023/07/02 09:39:54;;;;;;;5.13;3.38;;;;;;;26.40;53.03;96105.16;5034294;28;20029;-27
2023/07/02 09:42:20;;;;;;;4.93;3.78;;;;;;;26.43;53.18;96097.78;5034141;28;20042;-27
2023/07/02 09:44:46;;;;;;;6.10;3.70;;;;;;;26.41;52.78;96098.31;5047642;28;20028;-27
2023/07/02 09:47:13;;;;;;;7.82;4.05;;;;;;;26.47;52.90;96103.75;5033811;28;20075;-28
2023/07/02 09:49:43;;;;;;;5.65;3.70;;;;;;;26.42;52.98;96101.84;5042030;28;20364;-27
2023/07/02 09:52:11;;;;;;;5.53;3.58;;;;;;;26.53;52.54;96098.81;5034611;28;20021;-27
2023/07/02 09:54:37;;;;;;;5.80;3.58;;;;;;;26.64;52.09;96095.75;5034033;28;20024;-27
2023/07/02 09:57:04;;;;;;;4.65;3.13;;;;;;;26.74;51.95;96094.00;5034061;28;20017;-27
2023/07/02 09:59:30;;;;;;;6.38;4.03;;;;;;;26.55;53.10;96093.47;5034260;28;20108;-27
2023/07/02 10:01:56;;;;;;;5.55;3.20;;;;;;;26.65;52.76;96088.91;5034322;28;20027;-27
2023/07/02 10:04:25;;;;;;;5.55;3.55;;;;;;;26.62;52.28;96095.56;5034124;28;20017;-27
2023/07/02 10:06:55;;;;;;;6.75;3.88;;;;;;;26.63;52.87;96094.28;5034160;28;20032;-27
2023/07/02 10:09:53;;;;;;;6.93;3.97;;;;;;;26.63;53.17;96093.53;5033996;28;20379;-27
2023/07/02 10:12:22;;;;;;;6.55;3.60;;;;;;;26.64;52.93;96101.31;5032146;28;20121;-27
2023/07/02 10:14:49;;;;;;;5.82;3.80;;;;;;;26.65;53.08;96097.25;5033759;28;20032;-27
2023/07/02 10:17:30;;;;;;;7.05;4.07;;;;;;;26.65;52.83;96102.81;5033998;28;20017;-27
2023/07/02 10:19:57;;;;;;;6.90;3.78;;;;;;;26.72;52.62;96096.56;5034182;28;20115;-27
2023/07/02 10:22:23;;;;;;;7.47;4.43;;;;;;;26.66;52.37;96092.44;5033571;28;20108;-27
2023/07/02 10:25:00;;;;;;;5.70;3.90;;;;;;;26.73;52.09;96092.50;5033949;28;20116;-27
2023/07/02 10:27:42;;;;;;;6.20;3.85;;;;;;;26.54;52.73;96091.97;5033546;28;20033;-27
2023/07/02 10:30:09;;;;;;;5.07;3.60;;;;;;;26.72;51.68;96095.81;5034545;28;20110;-27
2023/07/02 10:32:36;;;;;;;6.28;3.53;;;;;;;26.80;51.50;96097.41;5033443;28;20030;-27
2023/07/02 10:35:21;;;;;;;4.15;2.90;;;;;;;26.69;52.05;96099.72;5033989;28;20481;-27
2023/07/02 10:37:47;;;;;;;7.53;3.80;;;;;;;26.76;52.02;96097.00;5033509;28;20041;-27
2023/07/02 10:40:13;;;;;;;4.88;3.80;;;;;;;26.68;52.42;96098.97;5033632;28;20553;-27
2023/07/02 10:42:46;;;;;;;7.07;4.32;;;;;;;26.66;52.69;96092.44;5033292;28;20038;-27
2023/07/02 10:45:11;;;;;;;4.47;3.28;;;;;;;26.76;52.26;96099.78;5033369;28;20075;-27
2023/07/02 10:47:39;;;;;;;6.78;3.70;;;;;;;26.59;53.22;96096.63;5033536;28;20030;-27
2023/07/02 10:50:19;;;;;;;6.82;3.80;;;;;;;26.72;52.18;96096.56;5033531;28;20079;-27
2023/07/02 10:52:45;;;;;;;6.80;3.95;;;;;;;26.73;51.95;96106.41;5036120;28;20021;-27
2023/07/02 10:55:10;;;;;;;5.22;3.40;;;;;;;26.75;51.96;96103.84;5039961;28;20032;-27
2023/07/02 10:57:36;;;;;;;4.93;3.22;;;;;;;27.01;51.04;96102.25;5039670;28;20100;-27
2023/07/02 11:00:07;;;;;;;4.88;3.30;;;;;;;26.75;51.72;96105.88;5040479;28;20382;-27
2023/07/02 11:02:39;;;;;;;5.57;3.30;;;;;;;26.97;50.86;96104.59;5039882;28;20027;-27
2023/07/02 11:05:06;;;;;;;4.78;3.20;;;;;;;27.00;50.60;96097.97;5039852;28;20067;-27
2023/07/02 11:07:32;;;;;;;4.38;3.15;;;;;;;26.91;50.51;96093.59;5039612;28;20371;-27
2023/07/02 11:09:58;;;;;;;4.15;2.85;;;;;;;26.91;50.61;96096.38;5039617;28;20096;-27
2023/07/02 11:12:30;;;;;;;4.20;3.15;;;;;;;27.05;50.40;96102.66;5039962;28;20026;-27
2023/07/02 11:15:08;;;;;;;6.43;3.05;;;;;;;26.85;50.80;96092.97;5046810;28;20139;-27
2023/07/02 11:17:33;;;;;;;4.40;2.95;;;;;;;27.04;50.22;96098.38;5047064;28;20075;-27
2023/07/02 11:19:59;;;;;;;5.63;2.45;;;;;;;26.94;50.06;96094.59;5039865;28;20478;-27
2023/07/02 11:22:32;;;;;;;3.40;2.67;;;;;;;26.94;50.42;96098.13;5039609;28;20104;-27
2023/07/02 11:25:12;;;;;;;4.47;2.92;;;;;;;26.95;50.35;96096.06;5039624;28;20025;-27
2023/07/02 11:27:37;;;;;;;4.65;2.75;;;;;;;26.96;50.22;96097.53;5039594;28;20497;-27
2023/07/02 11:30:03;;;;;;;5.07;2.85;;;;;;;26.97;49.96;96093.47;5047236;28;20021;-27